sensor_id;sensor_type;location;lat;lon;timestamp;temperature;humidity
1355;DHT22;671;48.972;9.276;2022-08-19T00:01:56;22.70;99.90
1355;DHT22;671;48.972;9.276;2022-08-19T00:04:26;22.60;99.90
1355;DHT22;671;48.972;9.276;2022-08-19T00:06:54;22.70;99.90
1355;DHT22;671;48.972;9.276;2022-08-19T00:09:22;22.60;99.90
1355;DHT22;671;48.972;9.276;2022-08-19T00:11:49;22.60;99.90
1355;DHT22;671;48.972;9.276;2022-08-19T00:14:17;22.60;99.90
1355;DHT22;671;48.972;9.276;2022-08-19T00:16:45;22.60;99.90
1355;DHT22;671;48.972;9.276;2022-08-19T00:19:13;22.50;99.90
1355;DHT22;671;48.972;9.276;2022-08-19T00:21:40;22.50;99.90
1355;DHT22;671;48.972;9.276;2022-08-19T00:24:09;22.50;99.90
1355;DHT22;671;48.972;9.276;2022-08-19T00:26:36;22.50;99.90
1355;DHT22;671;48.972;9.276;2022-08-19T00:29:04;22.50;99.90
1355;DHT22;671;48.972;9.276;2022-08-19T00:31:31;22.50;99.90
1355;DHT22;671;48.972;9.276;2022-08-19T00:33:58;22.50;99.90
1355;DHT22;671;48.972;9.276;2022-08-19T00:36:25;22.50;99.90
1355;DHT22;671;48.972;9.276;2022-08-19T00:38:51;22.50;99.90
1355;DHT22;671;48.972;9.276;2022-08-19T00:41:22;22.50;99.90
1355;DHT22;671;48.972;9.276;2022-08-19T00:46:25;22.40;99.90
1355;DHT22;671;48.972;9.276;2022-08-19T00:48:52;22.40;99.90
1355;DHT22;671;48.972;9.276;2022-08-19T00:51:18;22.40;99.90
1355;DHT22;671;48.972;9.276;2022-08-19T00:53:45;22.40;99.90
1355;DHT22;671;48.972;9.276;2022-08-19T00:56:11;22.40;99.90
1355;DHT22;671;48.972;9.276;2022-08-19T00:58:38;22.40;99.90
1355;DHT22;671;48.972;9.276;2022-08-19T01:01:06;22.40;99.90
1355;DHT22;671;48.972;9.276;2022-08-19T01:03:33;22.40;99.90
1355;DHT22;671;48.972;9.276;2022-08-19T01:06:00;22.40;99.90
1355;DHT22;671;48.972;9.276;2022-08-19T01:08:27;22.30;99.90
1355;DHT22;671;48.972;9.276;2022-08-19T01:10:56;22.40;99.90
1355;DHT22;671;48.972;9.276;2022-08-19T01:13:26;22.40;99.90
1355;DHT22;671;48.972;9.276;2022-08-19T01:15:57;22.50;99.90
1355;DHT22;671;48.972;9.276;2022-08-19T01:18:26;22.40;99.90
1355;DHT22;671;48.972;9.276;2022-08-19T01:20:57;22.40;99.90
1355;DHT22;671;48.972;9.276;2022-08-19T01:23:24;22.40;99.90
1355;DHT22;671;48.972;9.276;2022-08-19T01:26:12;22.40;99.90
1355;DHT22;671;48.972;9.276;2022-08-19T01:28:40;22.40;99.90
1355;DHT22;671;48.972;9.276;2022-08-19T01:31:10;22.40;99.90
1355;DHT22;671;48.972;9.276;2022-08-19T01:33:38;22.40;99.90
1355;DHT22;671;48.972;9.276;2022-08-19T01:36:07;22.40;99.90
1355;DHT22;671;48.972;9.276;2022-08-19T01:38:38;22.30;99.90
1355;DHT22;671;48.972;9.276;2022-08-19T01:41:05;22.30;99.90
1355;DHT22;671;48.972;9.276;2022-08-19T01:43:33;22.30;99.90
1355;DHT22;671;48.972;9.276;2022-08-19T01:45:59;22.30;99.90
1355;DHT22;671;48.972;9.276;2022-08-19T01:48:27;22.30;99.90
1355;DHT22;671;48.972;9.276;2022-08-19T01:50:58;22.30;99.90
1355;DHT22;671;48.972;9.276;2022-08-19T01:53:25;22.20;99.90
1355;DHT22;671;48.972;9.276;2022-08-19T01:55:51;22.20;99.90
1355;DHT22;671;48.972;9.276;2022-08-19T01:58:24;22.20;99.90
1355;DHT22;671;48.972;9.276;2022-08-19T02:00:54;22.20;99.90
1355;DHT22;671;48.972;9.276;2022-08-19T02:03:20;22.20;99.90
1355;DHT22;671;48.972;9.276;2022-08-19T02:05:47;22.10;99.90
1355;DHT22;671;48.972;9.276;2022-08-19T02:08:13;22.10;99.90
1355;DHT22;671;48.972;9.276;2022-08-19T02:10:42;22.10;99.90
1355;DHT22;671;48.972;9.276;2022-08-19T02:13:10;22.20;99.90
1355;DHT22;671;48.972;9.276;2022-08-19T02:15:38;22.10;99.90
1355;DHT22;671;48.972;9.276;2022-08-19T02:18:05;22.20;99.90
1355;DHT22;671;48.972;9.276;2022-08-19T02:20:32;22.20;99.90
1355;DHT22;671;48.972;9.276;2022-08-19T02:22:59;22.10;99.90
1355;DHT22;671;48.972;9.276;2022-08-19T02:25:27;22.10;99.90
1355;DHT22;671;48.972;9.276;2022-08-19T02:27:54;22.00;99.90
1355;DHT22;671;48.972;9.276;2022-08-19T02:30:21;22.00;99.90
1355;DHT22;671;48.972;9.276;2022-08-19T02:32:47;22.00;99.90
1355;DHT22;671;48.972;9.276;2022-08-19T02:35:14;21.90;99.90
1355;DHT22;671;48.972;9.276;2022-08-19T02:37:42;21.90;99.90
1355;DHT22;671;48.972;9.276;2022-08-19T02:40:29;21.90;99.90
1355;DHT22;671;48.972;9.276;2022-08-19T02:42:56;21.90;99.90
1355;DHT22;671;48.972;9.276;2022-08-19T02:45:22;21.80;99.90
1355;DHT22;671;48.972;9.276;2022-08-19T02:47:49;21.80;99.90
1355;DHT22;671;48.972;9.276;2022-08-19T02:50:15;21.80;99.90
1355;DHT22;671;48.972;9.276;2022-08-19T02:52:42;21.80;99.90
1355;DHT22;671;48.972;9.276;2022-08-19T02:55:09;21.70;99.90
1355;DHT22;671;48.972;9.276;2022-08-19T02:57:35;21.70;99.90
1355;DHT22;671;48.972;9.276;2022-08-19T03:00:05;21.70;99.90
1355;DHT22;671;48.972;9.276;2022-08-19T03:02:32;21.60;99.90
1355;DHT22;671;48.972;9.276;2022-08-19T03:04:58;21.60;99.90
1355;DHT22;671;48.972;9.276;2022-08-19T03:07:25;21.60;99.90
1355;DHT22;671;48.972;9.276;2022-08-19T03:09:51;21.60;99.90
1355;DHT22;671;48.972;9.276;2022-08-19T03:12:18;21.60;99.90
1355;DHT22;671;48.972;9.276;2022-08-19T03:14:44;21.60;99.90
1355;DHT22;671;48.972;9.276;2022-08-19T03:17:12;21.60;99.90
1355;DHT22;671;48.972;9.276;2022-08-19T03:19:39;21.50;99.90
1355;DHT22;671;48.972;9.276;2022-08-19T03:22:06;21.60;99.90
1355;DHT22;671;48.972;9.276;2022-08-19T03:24:33;21.60;99.90
1355;DHT22;671;48.972;9.276;2022-08-19T03:26:59;21.50;99.90
1355;DHT22;671;48.972;9.276;2022-08-19T03:29:27;21.50;99.90
1355;DHT22;671;48.972;9.276;2022-08-19T03:31:54;21.50;99.90
1355;DHT22;671;48.972;9.276;2022-08-19T03:34:25;21.50;99.90
1355;DHT22;671;48.972;9.276;2022-08-19T03:36:56;21.50;99.90
1355;DHT22;671;48.972;9.276;2022-08-19T03:39:24;21.40;99.90
1355;DHT22;671;48.972;9.276;2022-08-19T03:41:53;21.40;99.90
1355;DHT22;671;48.972;9.276;2022-08-19T03:44:21;21.40;99.90
1355;DHT22;671;48.972;9.276;2022-08-19T03:46:54;21.40;99.90
1355;DHT22;671;48.972;9.276;2022-08-19T03:49:26;21.40;99.90
1355;DHT22;671;48.972;9.276;2022-08-19T03:51:55;21.40;99.90
1355;DHT22;671;48.972;9.276;2022-08-19T03:54:24;21.40;99.90
1355;DHT22;671;48.972;9.276;2022-08-19T03:56:53;21.40;99.90
1355;DHT22;671;48.972;9.276;2022-08-19T03:59:26;21.30;99.90
1355;DHT22;671;48.972;9.276;2022-08-19T04:01:55;21.30;99.90
1355;DHT22;671;48.972;9.276;2022-08-19T04:04:23;21.30;99.90
1355;DHT22;671;48.972;9.276;2022-08-19T04:06:50;21.30;99.90
1355;DHT22;671;48.972;9.276;2022-08-19T04:09:18;21.30;99.90
1355;DHT22;671;48.972;9.276;2022-08-19T04:11:50;21.30;99.90
1355;DHT22;671;48.972;9.276;2022-08-19T04:14:22;21.30;99.90
1355;DHT22;671;48.972;9.276;2022-08-19T04:16:50;21.30;99.90
1355;DHT22;671;48.972;9.276;2022-08-19T04:19:18;21.30;99.90
1355;DHT22;671;48.972;9.276;2022-08-19T04:21:47;21.20;99.90
1355;DHT22;671;48.972;9.276;2022-08-19T04:24:15;21.30;99.90
1355;DHT22;671;48.972;9.276;2022-08-19T04:26:42;21.30;99.90
1355;DHT22;671;48.972;9.276;2022-08-19T04:29:14;21.30;99.90
1355;DHT22;671;48.972;9.276;2022-08-19T04:31:42;21.30;99.90
1355;DHT22;671;48.972;9.276;2022-08-19T04:34:12;21.30;99.90
1355;DHT22;671;48.972;9.276;2022-08-19T04:36:41;21.30;99.90
1355;DHT22;671;48.972;9.276;2022-08-19T04:39:22;21.30;99.90
1355;DHT22;671;48.972;9.276;2022-08-19T04:41:49;21.30;99.90
1355;DHT22;671;48.972;9.276;2022-08-19T04:44:35;21.30;99.90
1355;DHT22;671;48.972;9.276;2022-08-19T04:47:02;21.30;99.90
1355;DHT22;671;48.972;9.276;2022-08-19T04:49:31;21.20;99.90
1355;DHT22;671;48.972;9.276;2022-08-19T04:51:58;21.20;99.90
1355;DHT22;671;48.972;9.276;2022-08-19T04:54:25;21.20;99.90
1355;DHT22;671;48.972;9.276;2022-08-19T04:56:52;21.20;99.90
1355;DHT22;671;48.972;9.276;2022-08-19T04:59:20;21.30;99.90
1355;DHT22;671;48.972;9.276;2022-08-19T05:01:47;21.30;99.90
1355;DHT22;671;48.972;9.276;2022-08-19T05:04:18;21.30;99.90
1355;DHT22;671;48.972;9.276;2022-08-19T05:06:47;21.30;99.90
1355;DHT22;671;48.972;9.276;2022-08-19T05:09:15;21.30;99.90
1355;DHT22;671;48.972;9.276;2022-08-19T05:11:43;21.30;99.90
1355;DHT22;671;48.972;9.276;2022-08-19T05:14:10;21.30;99.90
1355;DHT22;671;48.972;9.276;2022-08-19T05:16:39;21.30;99.90
1355;DHT22;671;48.972;9.276;2022-08-19T05:19:06;21.30;99.90
1355;DHT22;671;48.972;9.276;2022-08-19T05:21:51;21.30;99.90
1355;DHT22;671;48.972;9.276;2022-08-19T05:24:37;21.30;99.90
1355;DHT22;671;48.972;9.276;2022-08-19T05:27:04;21.30;99.90
1355;DHT22;671;48.972;9.276;2022-08-19T05:29:32;21.30;99.90
1355;DHT22;671;48.972;9.276;2022-08-19T05:32:03;21.40;99.90
1355;DHT22;671;48.972;9.276;2022-08-19T05:34:31;21.40;99.90
1355;DHT22;671;48.972;9.276;2022-08-19T05:36:59;21.40;99.90
1355;DHT22;671;48.972;9.276;2022-08-19T05:39:29;21.40;99.90
1355;DHT22;671;48.972;9.276;2022-08-19T05:42:02;21.50;99.90
1355;DHT22;671;48.972;9.276;2022-08-19T05:44:30;21.50;99.90
1355;DHT22;671;48.972;9.276;2022-08-19T05:47:03;21.50;99.90
1355;DHT22;671;48.972;9.276;2022-08-19T05:49:31;21.50;99.90
1355;DHT22;671;48.972;9.276;2022-08-19T05:51:58;21.50;99.90
1355;DHT22;671;48.972;9.276;2022-08-19T05:54:27;21.50;99.90
1355;DHT22;671;48.972;9.276;2022-08-19T05:56:53;21.50;99.90
1355;DHT22;671;48.972;9.276;2022-08-19T05:59:21;21.50;99.90
1355;DHT22;671;48.972;9.276;2022-08-19T06:01:49;21.50;99.90
1355;DHT22;671;48.972;9.276;2022-08-19T06:04:21;21.60;99.90
1355;DHT22;671;48.972;9.276;2022-08-19T06:06:50;21.60;99.90
1355;DHT22;671;48.972;9.276;2022-08-19T06:09:19;21.60;99.90
1355;DHT22;671;48.972;9.276;2022-08-19T06:11:51;21.60;99.90
1355;DHT22;671;48.972;9.276;2022-08-19T06:14:23;21.60;99.90
1355;DHT22;671;48.972;9.276;2022-08-19T06:16:50;21.60;99.90
1355;DHT22;671;48.972;9.276;2022-08-19T06:19:21;21.60;99.90
1355;DHT22;671;48.972;9.276;2022-08-19T06:21:50;21.60;99.90
1355;DHT22;671;48.972;9.276;2022-08-19T06:24:21;21.60;99.90
1355;DHT22;671;48.972;9.276;2022-08-19T06:26:51;21.60;99.90
1355;DHT22;671;48.972;9.276;2022-08-19T06:29:21;21.60;99.90
1355;DHT22;671;48.972;9.276;2022-08-19T06:31:51;21.70;99.90
1355;DHT22;671;48.972;9.276;2022-08-19T06:34:18;21.70;99.90
1355;DHT22;671;48.972;9.276;2022-08-19T06:36:48;21.80;99.90
1355;DHT22;671;48.972;9.276;2022-08-19T06:39:24;21.80;99.90
1355;DHT22;671;48.972;9.276;2022-08-19T06:41:54;21.90;99.90
1355;DHT22;671;48.972;9.276;2022-08-19T06:44:22;21.90;99.90
1355;DHT22;671;48.972;9.276;2022-08-19T06:46:49;22.00;99.90
1355;DHT22;671;48.972;9.276;2022-08-19T06:49:16;22.00;99.90
1355;DHT22;671;48.972;9.276;2022-08-19T06:51:45;22.10;99.90
1355;DHT22;671;48.972;9.276;2022-08-19T06:54:15;22.20;99.90
1355;DHT22;671;48.972;9.276;2022-08-19T06:56:42;22.30;99.90
1355;DHT22;671;48.972;9.276;2022-08-19T06:59:12;22.30;99.90
1355;DHT22;671;48.972;9.276;2022-08-19T07:01:44;22.40;99.90
1355;DHT22;671;48.972;9.276;2022-08-19T07:04:16;22.50;99.90
1355;DHT22;671;48.972;9.276;2022-08-19T07:06:43;22.60;99.90
1355;DHT22;671;48.972;9.276;2022-08-19T07:09:13;22.70;99.90
1355;DHT22;671;48.972;9.276;2022-08-19T07:11:48;22.80;99.90
1355;DHT22;671;48.972;9.276;2022-08-19T07:14:17;22.80;99.90
1355;DHT22;671;48.972;9.276;2022-08-19T07:16:45;22.80;99.90
1355;DHT22;671;48.972;9.276;2022-08-19T07:19:12;22.90;99.90
1355;DHT22;671;48.972;9.276;2022-08-19T07:21:39;22.90;99.90
1355;DHT22;671;48.972;9.276;2022-08-19T07:24:05;22.90;99.90
1355;DHT22;671;48.972;9.276;2022-08-19T07:26:37;22.90;99.90
1355;DHT22;671;48.972;9.276;2022-08-19T07:29:05;23.00;99.90
1355;DHT22;671;48.972;9.276;2022-08-19T07:31:32;23.00;99.90
1355;DHT22;671;48.972;9.276;2022-08-19T07:34:06;22.90;99.90
1355;DHT22;671;48.972;9.276;2022-08-19T07:36:35;22.90;99.90
1355;DHT22;671;48.972;9.276;2022-08-19T07:39:10;22.80;99.90
1355;DHT22;671;48.972;9.276;2022-08-19T07:41:37;22.80;99.90
1355;DHT22;671;48.972;9.276;2022-08-19T07:44:05;22.80;99.90
1355;DHT22;671;48.972;9.276;2022-08-19T07:46:36;22.70;99.90
1355;DHT22;671;48.972;9.276;2022-08-19T07:49:05;22.70;99.90
1355;DHT22;671;48.972;9.276;2022-08-19T07:51:32;22.60;99.90
1355;DHT22;671;48.972;9.276;2022-08-19T07:53:59;22.60;99.90
1355;DHT22;671;48.972;9.276;2022-08-19T07:56:26;22.50;99.90
1355;DHT22;671;48.972;9.276;2022-08-19T07:58:53;22.50;99.90
1355;DHT22;671;48.972;9.276;2022-08-19T08:01:24;22.50;99.90
1355;DHT22;671;48.972;9.276;2022-08-19T08:03:52;22.50;99.90
1355;DHT22;671;48.972;9.276;2022-08-19T08:06:37;22.60;99.90
1355;DHT22;671;48.972;9.276;2022-08-19T08:09:27;22.60;99.90
1355;DHT22;671;48.972;9.276;2022-08-19T08:12:04;22.50;99.90
1355;DHT22;671;48.972;9.276;2022-08-19T08:14:48;22.50;99.90
1355;DHT22;671;48.972;9.276;2022-08-19T08:17:16;22.60;99.90
1355;DHT22;671;48.972;9.276;2022-08-19T08:19:44;22.60;99.90
1355;DHT22;671;48.972;9.276;2022-08-19T08:22:12;22.60;99.90
1355;DHT22;671;48.972;9.276;2022-08-19T08:25:05;22.60;99.90
1355;DHT22;671;48.972;9.276;2022-08-19T08:27:36;22.60;99.90
1355;DHT22;671;48.972;9.276;2022-08-19T08:30:03;22.70;99.90
1355;DHT22;671;48.972;9.276;2022-08-19T08:32:36;22.80;99.90
1355;DHT22;671;48.972;9.276;2022-08-19T08:35:05;22.90;99.90
1355;DHT22;671;48.972;9.276;2022-08-19T08:37:32;23.00;99.90
1355;DHT22;671;48.972;9.276;2022-08-19T08:40:01;23.20;99.90
1355;DHT22;671;48.972;9.276;2022-08-19T08:42:34;23.20;99.90
1355;DHT22;671;48.972;9.276;2022-08-19T08:45:20;23.20;99.90
1355;DHT22;671;48.972;9.276;2022-08-19T08:47:50;23.20;99.90
1355;DHT22;671;48.972;9.276;2022-08-19T08:53:19;23.20;99.90
1355;DHT22;671;48.972;9.276;2022-08-19T08:55:46;23.20;99.90
1355;DHT22;671;48.972;9.276;2022-08-19T08:59:05;23.40;99.90
1355;DHT22;671;48.972;9.276;2022-08-19T09:01:12;23.50;99.90
1355;DHT22;671;48.972;9.276;2022-08-19T09:03:40;23.80;99.90
1355;DHT22;671;48.972;9.276;2022-08-19T09:06:14;24.00;99.90
1355;DHT22;671;48.972;9.276;2022-08-19T09:11:44;24.30;99.90
1355;DHT22;671;48.972;9.276;2022-08-19T09:17:11;24.40;99.90
1355;DHT22;671;48.972;9.276;2022-08-19T09:19:50;24.40;99.90
1355;DHT22;671;48.972;9.276;2022-08-19T09:22:17;24.50;99.90
1355;DHT22;671;48.972;9.276;2022-08-19T09:24:43;24.60;99.90
1355;DHT22;671;48.972;9.276;2022-08-19T09:27:10;24.70;99.90
1355;DHT22;671;48.972;9.276;2022-08-19T09:29:36;24.60;99.90
1355;DHT22;671;48.972;9.276;2022-08-19T09:32:03;24.50;99.90
1355;DHT22;671;48.972;9.276;2022-08-19T09:34:29;24.50;99.90
1355;DHT22;671;48.972;9.276;2022-08-19T09:36:57;24.50;99.90
1355;DHT22;671;48.972;9.276;2022-08-19T09:39:26;24.40;99.90
1355;DHT22;671;48.972;9.276;2022-08-19T09:41:52;24.30;99.90
1355;DHT22;671;48.972;9.276;2022-08-19T09:44:19;24.20;99.90
1355;DHT22;671;48.972;9.276;2022-08-19T09:46:48;24.20;99.90
1355;DHT22;671;48.972;9.276;2022-08-19T09:49:17;24.10;99.90
1355;DHT22;671;48.972;9.276;2022-08-19T09:51:44;24.10;99.90
1355;DHT22;671;48.972;9.276;2022-08-19T09:54:11;24.10;99.90
1355;DHT22;671;48.972;9.276;2022-08-19T09:56:37;24.10;99.90
1355;DHT22;671;48.972;9.276;2022-08-19T09:59:04;24.10;99.90
1355;DHT22;671;48.972;9.276;2022-08-19T10:01:32;24.20;99.90
1355;DHT22;671;48.972;9.276;2022-08-19T10:04:00;24.30;99.90
1355;DHT22;671;48.972;9.276;2022-08-19T10:06:29;24.30;99.90
1355;DHT22;671;48.972;9.276;2022-08-19T10:09:00;24.20;99.90
1355;DHT22;671;48.972;9.276;2022-08-19T10:11:26;24.20;99.90
1355;DHT22;671;48.972;9.276;2022-08-19T10:13:54;24.10;99.90
1355;DHT22;671;48.972;9.276;2022-08-19T10:16:22;24.00;99.90
1355;DHT22;671;48.972;9.276;2022-08-19T10:18:49;24.00;99.90
1355;DHT22;671;48.972;9.276;2022-08-19T10:21:19;23.90;99.90
1355;DHT22;671;48.972;9.276;2022-08-19T10:23:49;23.90;99.90
1355;DHT22;671;48.972;9.276;2022-08-19T10:26:20;24.00;99.90
1355;DHT22;671;48.972;9.276;2022-08-19T10:28:48;24.20;99.90
1355;DHT22;671;48.972;9.276;2022-08-19T10:31:21;24.40;99.90
1355;DHT22;671;48.972;9.276;2022-08-19T10:33:49;24.60;99.90
1355;DHT22;671;48.972;9.276;2022-08-19T10:36:19;24.90;99.90
1355;DHT22;671;48.972;9.276;2022-08-19T10:38:48;25.00;99.90
1355;DHT22;671;48.972;9.276;2022-08-19T10:41:18;25.20;99.90
1355;DHT22;671;48.972;9.276;2022-08-19T10:43:46;25.20;99.90
1355;DHT22;671;48.972;9.276;2022-08-19T10:46:15;25.30;99.90
1355;DHT22;671;48.972;9.276;2022-08-19T10:48:42;25.50;99.90
1355;DHT22;671;48.972;9.276;2022-08-19T10:51:10;25.60;99.90
1355;DHT22;671;48.972;9.276;2022-08-19T10:53:55;25.80;99.90
1355;DHT22;671;48.972;9.276;2022-08-19T10:56:22;25.90;99.90
1355;DHT22;671;48.972;9.276;2022-08-19T10:59:07;26.00;99.90
1355;DHT22;671;48.972;9.276;2022-08-19T11:01:35;26.00;99.90
1355;DHT22;671;48.972;9.276;2022-08-19T11:04:03;26.00;99.90
1355;DHT22;671;48.972;9.276;2022-08-19T11:06:33;25.80;99.90
1355;DHT22;671;48.972;9.276;2022-08-19T11:09:00;25.80;99.90
1355;DHT22;671;48.972;9.276;2022-08-19T11:11:27;25.80;99.90
1355;DHT22;671;48.972;9.276;2022-08-19T11:13:54;25.80;99.90
1355;DHT22;671;48.972;9.276;2022-08-19T11:16:25;25.90;99.90
1355;DHT22;671;48.972;9.276;2022-08-19T11:18:54;26.10;99.90
1355;DHT22;671;48.972;9.276;2022-08-19T11:21:23;26.30;99.90
1355;DHT22;671;48.972;9.276;2022-08-19T11:23:52;26.40;99.90
1355;DHT22;671;48.972;9.276;2022-08-19T11:26:20;26.50;99.90
1355;DHT22;671;48.972;9.276;2022-08-19T11:28:47;26.60;99.90
1355;DHT22;671;48.972;9.276;2022-08-19T11:31:18;26.70;99.90
1355;DHT22;671;48.972;9.276;2022-08-19T11:33:45;26.80;99.90
1355;DHT22;671;48.972;9.276;2022-08-19T11:36:12;26.80;99.90
1355;DHT22;671;48.972;9.276;2022-08-19T11:38:39;27.00;99.90
1355;DHT22;671;48.972;9.276;2022-08-19T11:41:06;27.10;99.90
1355;DHT22;671;48.972;9.276;2022-08-19T11:43:36;27.30;99.90
1355;DHT22;671;48.972;9.276;2022-08-19T11:46:09;27.50;99.90
1355;DHT22;671;48.972;9.276;2022-08-19T11:48:38;27.60;99.50
1355;DHT22;671;48.972;9.276;2022-08-19T11:51:08;27.80;99.50
1355;DHT22;671;48.972;9.276;2022-08-19T11:53:36;27.80;99.40
1355;DHT22;671;48.972;9.276;2022-08-19T11:56:04;27.90;99.40
1355;DHT22;671;48.972;9.276;2022-08-19T11:58:31;27.80;99.20
1355;DHT22;671;48.972;9.276;2022-08-19T12:00:58;27.70;99.10
1355;DHT22;671;48.972;9.276;2022-08-19T12:03:25;27.50;99.20
1355;DHT22;671;48.972;9.276;2022-08-19T12:05:52;27.20;99.80
1355;DHT22;671;48.972;9.276;2022-08-19T12:08:19;27.00;99.90
1355;DHT22;671;48.972;9.276;2022-08-19T12:10:45;27.00;99.90
1355;DHT22;671;48.972;9.276;2022-08-19T12:13:13;26.90;99.90
1355;DHT22;671;48.972;9.276;2022-08-19T12:15:46;26.90;99.90
1355;DHT22;671;48.972;9.276;2022-08-19T12:18:13;26.80;99.30
1355;DHT22;671;48.972;9.276;2022-08-19T12:20:42;26.80;98.80
1355;DHT22;671;48.972;9.276;2022-08-19T12:23:09;26.90;98.90
1355;DHT22;671;48.972;9.276;2022-08-19T12:25:42;27.10;98.50
1355;DHT22;671;48.972;9.276;2022-08-19T12:28:14;27.10;98.30
1355;DHT22;671;48.972;9.276;2022-08-19T12:30:42;27.30;98.20
1355;DHT22;671;48.972;9.276;2022-08-19T12:33:08;27.40;98.10
1355;DHT22;671;48.972;9.276;2022-08-19T12:35:38;27.50;98.20
1355;DHT22;671;48.972;9.276;2022-08-19T12:38:05;27.50;97.90
1355;DHT22;671;48.972;9.276;2022-08-19T12:40:33;27.40;97.80
1355;DHT22;671;48.972;9.276;2022-08-19T12:42:59;27.30;97.80
1355;DHT22;671;48.972;9.276;2022-08-19T12:45:26;27.30;98.00
1355;DHT22;671;48.972;9.276;2022-08-19T12:47:52;27.20;97.90
1355;DHT22;671;48.972;9.276;2022-08-19T12:50:19;27.20;98.00
1355;DHT22;671;48.972;9.276;2022-08-19T12:52:47;27.10;98.30
1355;DHT22;671;48.972;9.276;2022-08-19T12:55:14;27.10;98.30
1355;DHT22;671;48.972;9.276;2022-08-19T12:57:41;27.00;98.70
1355;DHT22;671;48.972;9.276;2022-08-19T13:00:11;27.00;99.90
1355;DHT22;671;48.972;9.276;2022-08-19T13:02:41;27.00;99.90
1355;DHT22;671;48.972;9.276;2022-08-19T13:05:09;27.10;99.90
1355;DHT22;671;48.972;9.276;2022-08-19T13:07:38;27.20;99.90
1355;DHT22;671;48.972;9.276;2022-08-19T13:10:07;27.20;99.90
1355;DHT22;671;48.972;9.276;2022-08-19T13:12:34;27.20;99.90
1355;DHT22;671;48.972;9.276;2022-08-19T13:15:00;27.20;99.90
1355;DHT22;671;48.972;9.276;2022-08-19T13:17:28;27.10;99.90
1355;DHT22;671;48.972;9.276;2022-08-19T13:19:54;27.10;99.90
1355;DHT22;671;48.972;9.276;2022-08-19T13:22:21;26.90;99.90
1355;DHT22;671;48.972;9.276;2022-08-19T13:24:47;26.80;99.90
1355;DHT22;671;48.972;9.276;2022-08-19T13:27:14;26.70;99.90
1355;DHT22;671;48.972;9.276;2022-08-19T13:29:41;26.70;99.90
1355;DHT22;671;48.972;9.276;2022-08-19T13:32:26;26.60;99.90
1355;DHT22;671;48.972;9.276;2022-08-19T13:35:12;26.40;99.90
1355;DHT22;671;48.972;9.276;2022-08-19T13:37:38;26.40;99.90
1355;DHT22;671;48.972;9.276;2022-08-19T13:40:14;26.30;99.90
1355;DHT22;671;48.972;9.276;2022-08-19T13:42:48;26.40;99.90
1355;DHT22;671;48.972;9.276;2022-08-19T13:45:17;26.40;99.90
1355;DHT22;671;48.972;9.276;2022-08-19T13:47:46;26.40;99.90
1355;DHT22;671;48.972;9.276;2022-08-19T13:50:15;26.50;99.90
1355;DHT22;671;48.972;9.276;2022-08-19T13:52:43;26.60;99.90
1355;DHT22;671;48.972;9.276;2022-08-19T13:55:11;26.60;99.90
1355;DHT22;671;48.972;9.276;2022-08-19T13:57:38;26.60;99.90
1355;DHT22;671;48.972;9.276;2022-08-19T14:00:07;26.50;99.90
1355;DHT22;671;48.972;9.276;2022-08-19T14:02:38;26.40;99.90
1355;DHT22;671;48.972;9.276;2022-08-19T14:05:08;26.30;99.90
1355;DHT22;671;48.972;9.276;2022-08-19T14:07:35;26.30;99.90
1355;DHT22;671;48.972;9.276;2022-08-19T14:10:05;26.20;99.90
1355;DHT22;671;48.972;9.276;2022-08-19T14:12:32;26.10;99.90
1355;DHT22;671;48.972;9.276;2022-08-19T14:14:59;26.00;99.90
1355;DHT22;671;48.972;9.276;2022-08-19T14:17:26;25.80;99.90
1355;DHT22;671;48.972;9.276;2022-08-19T14:20:00;25.70;99.90
1355;DHT22;671;48.972;9.276;2022-08-19T14:22:28;25.50;99.90
1355;DHT22;671;48.972;9.276;2022-08-19T14:24:55;25.40;99.90
1355;DHT22;671;48.972;9.276;2022-08-19T14:27:22;25.30;99.90
1355;DHT22;671;48.972;9.276;2022-08-19T14:29:50;25.10;99.90
1355;DHT22;671;48.972;9.276;2022-08-19T14:32:16;24.80;99.90
1355;DHT22;671;48.972;9.276;2022-08-19T14:34:43;24.70;99.90
1355;DHT22;671;48.972;9.276;2022-08-19T14:37:12;24.60;99.90
1355;DHT22;671;48.972;9.276;2022-08-19T14:39:42;24.60;99.90
1355;DHT22;671;48.972;9.276;2022-08-19T14:42:09;24.50;99.90
1355;DHT22;671;48.972;9.276;2022-08-19T14:44:36;24.30;99.90
1355;DHT22;671;48.972;9.276;2022-08-19T14:47:03;24.30;99.90
1355;DHT22;671;48.972;9.276;2022-08-19T14:49:29;24.20;99.90
1355;DHT22;671;48.972;9.276;2022-08-19T14:51:56;24.10;99.90
1355;DHT22;671;48.972;9.276;2022-08-19T14:54:22;24.10;99.90
1355;DHT22;671;48.972;9.276;2022-08-19T14:56:49;24.00;99.90
1355;DHT22;671;48.972;9.276;2022-08-19T14:59:16;24.00;99.90
1355;DHT22;671;48.972;9.276;2022-08-19T15:01:43;23.90;99.90
1355;DHT22;671;48.972;9.276;2022-08-19T15:04:10;23.80;99.90
1355;DHT22;671;48.972;9.276;2022-08-19T15:06:37;23.70;99.90
1355;DHT22;671;48.972;9.276;2022-08-19T15:09:04;23.70;99.90
1355;DHT22;671;48.972;9.276;2022-08-19T15:11:31;23.60;99.90
1355;DHT22;671;48.972;9.276;2022-08-19T15:13:59;23.50;99.90
1355;DHT22;671;48.972;9.276;2022-08-19T15:16:27;23.50;99.90
1355;DHT22;671;48.972;9.276;2022-08-19T15:18:58;23.40;99.90
1355;DHT22;671;48.972;9.276;2022-08-19T15:21:27;23.40;99.90
1355;DHT22;671;48.972;9.276;2022-08-19T15:23:55;23.40;99.90
1355;DHT22;671;48.972;9.276;2022-08-19T15:26:21;23.40;99.90
1355;DHT22;671;48.972;9.276;2022-08-19T15:28:48;23.40;99.90
1355;DHT22;671;48.972;9.276;2022-08-19T15:31:18;23.40;99.90
1355;DHT22;671;48.972;9.276;2022-08-19T15:33:44;23.40;99.90
1355;DHT22;671;48.972;9.276;2022-08-19T15:36:12;23.40;99.90
1355;DHT22;671;48.972;9.276;2022-08-19T15:38:39;23.40;99.90
1355;DHT22;671;48.972;9.276;2022-08-19T15:41:17;23.40;99.90
1355;DHT22;671;48.972;9.276;2022-08-19T15:43:56;23.40;99.90
1355;DHT22;671;48.972;9.276;2022-08-19T15:46:27;23.40;99.90
1355;DHT22;671;48.972;9.276;2022-08-19T15:48:54;23.50;99.90
1355;DHT22;671;48.972;9.276;2022-08-19T15:51:21;23.50;99.90
1355;DHT22;671;48.972;9.276;2022-08-19T15:53:48;23.70;99.90
1355;DHT22;671;48.972;9.276;2022-08-19T15:56:15;23.70;99.90
1355;DHT22;671;48.972;9.276;2022-08-19T15:58:42;23.80;99.90
1355;DHT22;671;48.972;9.276;2022-08-19T16:01:27;23.90;99.90
1355;DHT22;671;48.972;9.276;2022-08-19T16:03:56;24.20;99.90
1355;DHT22;671;48.972;9.276;2022-08-19T16:06:50;24.40;99.90
1355;DHT22;671;48.972;9.276;2022-08-19T16:09:18;24.60;99.90
1355;DHT22;671;48.972;9.276;2022-08-19T16:11:46;24.80;99.90
1355;DHT22;671;48.972;9.276;2022-08-19T16:14:15;25.00;99.90
1355;DHT22;671;48.972;9.276;2022-08-19T16:16:42;25.00;99.90
1355;DHT22;671;48.972;9.276;2022-08-19T16:19:14;25.10;99.90
1355;DHT22;671;48.972;9.276;2022-08-19T16:21:46;25.20;99.90
1355;DHT22;671;48.972;9.276;2022-08-19T16:24:15;25.20;99.90
1355;DHT22;671;48.972;9.276;2022-08-19T16:26:43;25.10;99.90
1355;DHT22;671;48.972;9.276;2022-08-19T16:29:11;25.20;99.90
1355;DHT22;671;48.972;9.276;2022-08-19T16:31:38;25.30;99.90
1355;DHT22;671;48.972;9.276;2022-08-19T16:34:05;25.30;99.90
1355;DHT22;671;48.972;9.276;2022-08-19T16:36:32;25.40;99.90
1355;DHT22;671;48.972;9.276;2022-08-19T16:38:59;25.40;99.90
1355;DHT22;671;48.972;9.276;2022-08-19T16:41:26;25.50;99.90